createdAt,value
2022-10-24T00:03:43.223Z,18.56
2022-10-24T00:08:44.672Z,18.48
2022-10-24T00:13:46.163Z,18.95
2022-10-24T00:18:47.677Z,18.89
2022-10-24T00:23:49.123Z,19.01
2022-10-24T00:28:50.641Z,19.20
2022-10-24T00:33:52.153Z,18.99
2022-10-24T00:38:53.661Z,18.49
2022-10-24T00:44:13.867Z,18.79
2022-10-24T00:49:16.339Z,18.60
2022-10-24T00:54:17.970Z,19.09
2022-10-24T00:59:19.422Z,18.77
2022-10-24T01:04:20.863Z,19.13
2022-10-24T01:09:50.983Z,19.01
2022-10-24T01:14:59.869Z,18.75
2022-10-24T01:20:23.022Z,18.80
2022-10-24T01:25:45.255Z,18.31
2022-10-24T01:30:49.392Z,19.13
2022-10-24T01:35:56.358Z,19.24
2022-10-24T01:41:00.277Z,18.88
2022-10-24T01:46:03.462Z,19.03
2022-10-24T01:51:04.965Z,19.13
2022-10-24T01:56:06.855Z,19.16
2022-10-24T02:01:10.497Z,19.14
2022-10-24T02:06:16.178Z,18.80
2022-10-24T02:11:17.625Z,19.12
2022-10-24T02:16:19.469Z,19.01
2022-10-24T02:21:49.299Z,18.41
2022-10-24T02:26:58.208Z,18.70
2022-10-24T02:31:59.672Z,18.51
2022-10-24T02:37:01.130Z,18.71
2022-10-24T02:42:02.867Z,18.98
2022-10-24T02:47:04.723Z,18.40
2022-10-24T02:52:06.344Z,18.35
2022-10-24T02:57:07.799Z,18.97
2022-10-24T03:02:09.259Z,18.57
2022-10-24T03:07:10.818Z,18.64
2022-10-24T03:12:16.003Z,19.00
2022-10-24T03:17:17.466Z,19.15
2022-10-24T03:22:19.142Z,18.91
2022-10-24T03:27:20.583Z,19.08
2022-10-24T03:32:22.141Z,19.35
2022-10-24T03:37:23.662Z,19.30
2022-10-24T03:42:25.137Z,19.50
2022-10-24T03:47:26.579Z,19.37
2022-10-24T03:52:28.029Z,18.65
2022-10-24T03:57:29.478Z,19.25
2022-10-24T04:02:30.933Z,18.68
2022-10-24T04:07:32.378Z,19.20
2022-10-24T04:12:33.843Z,19.00
2022-10-24T04:17:35.325Z,19.31
2022-10-24T04:22:36.770Z,18.80
2022-10-24T04:27:40.571Z,18.98
2022-10-24T04:32:42.197Z,19.31
2022-10-24T04:37:43.851Z,19.08
2022-10-24T04:42:45.463Z,19.29
2022-10-24T04:47:47.423Z,19.19
2022-10-24T04:52:49.075Z,18.69
2022-10-24T04:57:50.517Z,18.60
2022-10-24T05:02:54.155Z,18.83
2022-10-24T05:07:58.238Z,18.98
2022-10-24T05:12:59.731Z,18.41
2022-10-24T05:18:01.183Z,18.81
2022-10-24T05:23:02.647Z,18.98
2022-10-24T05:28:04.122Z,18.61
2022-10-24T05:33:05.669Z,19.23
2022-10-24T05:38:07.205Z,19.09
2022-10-24T05:43:08.665Z,18.95
2022-10-24T05:48:10.121Z,19.15
2022-10-24T05:53:12.961Z,19.07
2022-10-24T05:58:14.432Z,18.70
2022-10-24T06:03:15.883Z,19.15
2022-10-24T06:08:17.536Z,18.85
2022-10-24T06:13:19.057Z,18.57
2022-10-24T06:18:20.556Z,18.46
2022-10-24T06:23:22.055Z,17.99
2022-10-24T06:28:23.504Z,18.55
2022-10-24T06:33:24.960Z,18.49
2022-10-24T06:38:26.642Z,18.74
2022-10-24T06:43:28.094Z,18.80
2022-10-24T06:48:29.554Z,18.52
2022-10-24T06:53:31.025Z,18.74
2022-10-24T06:58:33.288Z,18.87
2022-10-24T07:03:34.797Z,18.92
2022-10-24T07:08:36.255Z,18.83
2022-10-24T07:13:37.810Z,18.48
2022-10-24T07:18:39.353Z,18.65
2022-10-24T07:23:40.921Z,18.63
2022-10-24T07:28:43.065Z,18.74
2022-10-24T07:33:44.515Z,18.83
2022-10-24T07:38:46.954Z,18.93
2022-10-24T07:43:48.456Z,19.15
2022-10-24T07:48:50.381Z,19.10
2022-10-24T07:53:51.871Z,19.14
2022-10-24T07:58:53.411Z,19.28
2022-10-24T08:03:55.439Z,19.53
2022-10-24T08:08:56.945Z,19.25
2022-10-24T08:13:58.440Z,19.08
2022-10-24T08:18:59.938Z,19.28
2022-10-24T08:24:01.385Z,19.39
2022-10-24T08:29:04.382Z,19.55
2022-10-24T08:34:06.109Z,19.53
2022-10-24T08:39:07.562Z,19.45
2022-10-24T08:44:39.955Z,19.87
2022-10-24T08:50:10.485Z,19.63
2022-10-24T08:55:25.094Z,19.55
2022-10-24T09:00:40.680Z,19.79
2022-10-24T09:05:55.353Z,19.61
2022-10-24T09:11:03.942Z,18.87
2022-10-24T09:16:05.265Z,19.62
2022-10-24T09:21:07.632Z,19.48
2022-10-24T09:26:16.750Z,19.39
2022-10-24T09:31:20.032Z,19.33
2022-10-24T09:36:21.901Z,19.51
2022-10-24T09:41:27.726Z,19.19
2022-10-24T09:46:37.080Z,19.78
2022-10-24T09:51:47.683Z,19.92
2022-10-24T09:56:54.386Z,20.02
2022-10-24T10:02:12.718Z,20.31
2022-10-24T10:07:17.163Z,19.59
2022-10-24T10:12:38.045Z,20.21
2022-10-24T10:17:39.514Z,20.09
2022-10-24T10:22:40.984Z,20.60
2022-10-24T10:27:42.584Z,20.62
2022-10-24T10:32:59.317Z,20.69
2022-10-24T10:38:38.025Z,20.63
2022-10-24T10:43:51.578Z,20.71
2022-10-24T10:49:10.913Z,20.76
2022-10-24T10:54:31.123Z,20.67
2022-10-24T10:59:38.694Z,20.55
2022-10-24T11:04:45.166Z,20.77
2022-10-24T11:09:48.143Z,20.53
2022-10-24T11:15:02.216Z,20.72
2022-10-24T11:20:37.350Z,20.96
2022-10-24T11:25:40.016Z,20.69
2022-10-24T11:30:56.782Z,20.79
2022-10-24T11:36:13.874Z,20.64
2022-10-24T11:41:23.914Z,20.07
2022-10-24T11:46:28.601Z,20.78
2022-10-24T11:51:29.885Z,20.51
2022-10-24T11:56:35.611Z,20.52
2022-10-24T12:01:55.153Z,20.06
2022-10-24T12:07:23.921Z,20.76
2022-10-24T12:12:44.903Z,20.53
2022-10-24T12:18:04.040Z,20.66
2022-10-24T12:23:05.526Z,20.63
2022-10-24T12:28:12.198Z,20.80
2022-10-24T12:33:25.190Z,20.90
2022-10-24T12:38:29.497Z,20.39
2022-10-24T12:43:42.775Z,20.44
2022-10-24T12:49:10.313Z,20.15
2022-10-24T12:54:11.588Z,20.03
2022-10-24T12:59:22.750Z,20.00
2022-10-24T13:04:49.241Z,20.21
2022-10-24T13:10:34.757Z,19.90
2022-10-24T13:15:56.952Z,19.86
2022-10-24T13:21:54.895Z,20.03
2022-10-24T13:26:56.676Z,19.68
2022-10-24T13:32:04.150Z,19.73
2022-10-24T13:37:12.564Z,19.62
2022-10-24T13:42:43.214Z,19.57
2022-10-24T13:47:45.481Z,19.52
2022-10-24T13:52:49.573Z,19.40
2022-10-24T13:58:11.074Z,19.12
2022-10-24T14:03:13.677Z,19.33
2022-10-24T14:08:37.968Z,19.11
2022-10-24T14:13:44.609Z,18.52
2022-10-24T14:18:46.080Z,18.62
2022-10-24T14:23:55.793Z,18.44
2022-10-24T14:29:00.019Z,18.64
2022-10-24T14:34:03.021Z,18.48
2022-10-24T14:39:04.498Z,18.41
2022-10-24T14:44:06.275Z,18.83
2022-10-24T14:49:26.067Z,18.14
2022-10-24T14:54:31.567Z,18.40
2022-10-24T14:59:35.207Z,18.51
2022-10-24T15:04:38.729Z,18.79
2022-10-24T15:09:59.744Z,18.44
2022-10-24T15:15:27.751Z,18.19
2022-10-24T15:20:37.061Z,17.80
2022-10-24T15:25:42.056Z,18.24
2022-10-24T15:30:44.597Z,18.19
2022-10-24T15:35:46.053Z,18.48
2022-10-24T15:40:48.112Z,17.97
2022-10-24T15:45:49.581Z,18.39
2022-10-24T15:50:51.040Z,18.34
2022-10-24T15:55:52.493Z,18.76
2022-10-24T16:00:54.006Z,18.61
2022-10-24T16:05:56.035Z,18.40
2022-10-24T16:10:57.510Z,18.27
2022-10-24T16:15:58.993Z,18.27
2022-10-24T16:21:00.542Z,18.04
2022-10-24T16:26:02.003Z,17.71
2022-10-24T16:31:06.324Z,18.44
2022-10-24T16:36:07.880Z,18.09
2022-10-24T16:41:14.688Z,18.23
2022-10-24T16:46:17.804Z,17.95
2022-10-24T16:51:23.164Z,18.33
2022-10-24T16:56:24.711Z,18.13
2022-10-24T17:01:27.785Z,17.89
2022-10-24T17:06:29.827Z,18.58
2022-10-24T17:11:46.861Z,17.55
2022-10-24T17:16:48.341Z,17.48
2022-10-24T17:21:50.537Z,17.71
2022-10-24T17:26:52.060Z,17.91
2022-10-24T17:31:53.988Z,17.16
2022-10-24T17:37:05.437Z,17.97
2022-10-24T17:42:09.430Z,17.54
2022-10-24T17:47:11.013Z,17.37
2022-10-24T17:52:13.350Z,17.72
2022-10-24T17:57:14.662Z,17.74
2022-10-24T18:02:16.162Z,17.62
2022-10-24T18:07:17.704Z,16.80
2022-10-24T18:12:19.151Z,17.61
2022-10-24T18:17:20.600Z,17.44
2022-10-24T18:22:22.062Z,17.98
2022-10-24T18:27:23.539Z,17.35
2022-10-24T18:32:24.984Z,17.14
2022-10-24T18:37:26.669Z,17.17
2022-10-24T18:42:38.333Z,17.33
2022-10-24T18:47:40.099Z,17.69
2022-10-24T18:53:04.408Z,17.81
2022-10-24T18:58:10.455Z,17.50
2022-10-24T19:03:36.810Z,17.21
2022-10-24T19:08:38.297Z,17.63
2022-10-24T19:13:39.859Z,17.80
2022-10-24T19:18:41.307Z,17.69
2022-10-24T19:23:42.771Z,17.30
2022-10-24T19:28:44.265Z,17.49
2022-10-24T19:33:45.737Z,16.87
2022-10-24T19:38:47.219Z,17.52
2022-10-24T19:43:48.693Z,17.75
2022-10-24T19:48:50.281Z,18.02
2022-10-24T19:53:54.588Z,17.65
2022-10-24T19:58:56.077Z,17.55
2022-10-24T20:03:57.575Z,17.64
2022-10-24T20:08:59.038Z,17.39
2022-10-24T20:14:00.492Z,17.26
2022-10-24T20:19:01.977Z,16.92
2022-10-24T20:24:03.530Z,16.78
2022-10-24T20:29:05.053Z,17.59
2022-10-24T20:34:09.711Z,17.35
2022-10-24T20:39:11.992Z,17.26
2022-10-24T20:44:13.318Z,17.64
2022-10-24T20:49:14.815Z,17.08
2022-10-24T20:54:16.263Z,17.36
2022-10-24T20:59:17.790Z,17.56
2022-10-24T21:04:20.834Z,17.51
2022-10-24T21:09:22.555Z,17.62
2022-10-24T21:14:24.027Z,16.67
2022-10-24T21:19:26.655Z,17.69
2022-10-24T21:24:28.112Z,17.77
2022-10-24T21:29:33.917Z,17.76
2022-10-24T21:34:35.857Z,17.28
2022-10-24T21:39:37.305Z,17.58
2022-10-24T21:44:38.759Z,17.86
2022-10-24T21:49:40.220Z,17.81
2022-10-24T21:54:41.689Z,17.76
2022-10-24T21:59:43.178Z,17.68
2022-10-24T22:04:44.638Z,17.75
2022-10-24T22:09:46.117Z,17.62
2022-10-24T22:14:47.565Z,18.04
2022-10-24T22:19:49.007Z,18.12
2022-10-24T22:24:50.461Z,18.13
2022-10-24T22:29:51.911Z,17.88
2022-10-24T22:34:53.650Z,17.87
2022-10-24T22:39:55.368Z,18.16
2022-10-24T22:44:57.014Z,18.01
2022-10-24T22:50:10.520Z,18.22
2022-10-24T22:55:19.099Z,18.07
2022-10-24T23:00:20.833Z,18.22
2022-10-24T23:05:37.629Z,18.00
2022-10-24T23:10:39.956Z,17.99
2022-10-24T23:15:41.305Z,17.90
2022-10-24T23:20:50.404Z,17.95
2022-10-24T23:26:03.641Z,18.06
2022-10-24T23:31:05.474Z,18.06
2022-10-24T23:36:07.404Z,18.37
2022-10-24T23:41:09.613Z,18.21
2022-10-24T23:46:31.817Z,17.88
2022-10-24T23:51:40.987Z,18.18
2022-10-24T23:56:42.650Z,18.26
